sensor_id;sensor_type;location;lat;lon;timestamp;temperature;humidity
11009;DHT22;5557;51.670;7.788;2022-11-20T00:01:14;-4.00;99.90
11009;DHT22;5557;51.670;7.788;2022-11-20T00:03:42;-4.10;99.90
11009;DHT22;5557;51.670;7.788;2022-11-20T00:06:11;-4.20;99.90
11009;DHT22;5557;51.670;7.788;2022-11-20T00:08:39;-4.20;99.90
11009;DHT22;5557;51.670;7.788;2022-11-20T00:11:08;-4.20;99.90
11009;DHT22;5557;51.670;7.788;2022-11-20T00:13:45;-4.20;99.90
11009;DHT22;5557;51.670;7.788;2022-11-20T00:16:14;-4.30;99.90
11009;DHT22;5557;51.670;7.788;2022-11-20T00:18:42;-4.40;99.90
11009;DHT22;5557;51.670;7.788;2022-11-20T00:21:15;-4.50;99.90
11009;DHT22;5557;51.670;7.788;2022-11-20T00:23:43;-4.50;99.90
11009;DHT22;5557;51.670;7.788;2022-11-20T00:26:12;-4.60;99.90
11009;DHT22;5557;51.670;7.788;2022-11-20T00:28:40;-4.50;99.90
11009;DHT22;5557;51.670;7.788;2022-11-20T00:31:13;-4.60;99.90
11009;DHT22;5557;51.670;7.788;2022-11-20T00:33:41;-4.80;99.90
11009;DHT22;5557;51.670;7.788;2022-11-20T00:36:25;-4.80;99.90
11009;DHT22;5557;51.670;7.788;2022-11-20T00:38:54;-4.90;99.90
11009;DHT22;5557;51.670;7.788;2022-11-20T00:41:21;-4.90;99.90
11009;DHT22;5557;51.670;7.788;2022-11-20T00:43:48;-4.90;99.90
11009;DHT22;5557;51.670;7.788;2022-11-20T00:46:18;-4.90;99.90
11009;DHT22;5557;51.670;7.788;2022-11-20T00:48:46;-5.00;99.90
11009;DHT22;5557;51.670;7.788;2022-11-20T00:51:15;-5.00;99.90
11009;DHT22;5557;51.670;7.788;2022-11-20T00:53:44;-5.10;99.90
11009;DHT22;5557;51.670;7.788;2022-11-20T00:56:13;-5.10;99.90
11009;DHT22;5557;51.670;7.788;2022-11-20T00:58:41;-5.10;99.90
11009;DHT22;5557;51.670;7.788;2022-11-20T01:01:20;-5.20;99.90
11009;DHT22;5557;51.670;7.788;2022-11-20T01:03:49;-5.20;99.90
11009;DHT22;5557;51.670;7.788;2022-11-20T01:06:22;-5.30;99.90
11009;DHT22;5557;51.670;7.788;2022-11-20T01:08:50;-5.30;99.90
11009;DHT22;5557;51.670;7.788;2022-11-20T01:11:26;-5.30;99.90
11009;DHT22;5557;51.670;7.788;2022-11-20T01:13:54;-5.30;99.90
11009;DHT22;5557;51.670;7.788;2022-11-20T01:16:33;-5.30;99.90
11009;DHT22;5557;51.670;7.788;2022-11-20T01:19:02;-5.30;99.90
11009;DHT22;5557;51.670;7.788;2022-11-20T01:21:38;-5.40;99.90
11009;DHT22;5557;51.670;7.788;2022-11-20T01:24:06;-5.40;99.90
11009;DHT22;5557;51.670;7.788;2022-11-20T01:26:37;-5.50;99.90
11009;DHT22;5557;51.670;7.788;2022-11-20T01:29:05;-5.40;99.90
11009;DHT22;5557;51.670;7.788;2022-11-20T01:31:37;-5.30;99.90
11009;DHT22;5557;51.670;7.788;2022-11-20T01:34:06;-5.30;99.90
11009;DHT22;5557;51.670;7.788;2022-11-20T01:36:35;-5.30;99.90
11009;DHT22;5557;51.670;7.788;2022-11-20T01:39:11;-5.20;99.90
11009;DHT22;5557;51.670;7.788;2022-11-20T01:41:38;-5.10;99.90
11009;DHT22;5557;51.670;7.788;2022-11-20T01:45:42;-5.00;99.90
11009;DHT22;5557;51.670;7.788;2022-11-20T01:47:50;-4.80;99.90
11009;DHT22;5557;51.670;7.788;2022-11-20T01:50:26;-4.70;99.90
11009;DHT22;5557;51.670;7.788;2022-11-20T01:52:59;-4.50;99.90
11009;DHT22;5557;51.670;7.788;2022-11-20T01:55:32;-4.40;99.90
11009;DHT22;5557;51.670;7.788;2022-11-20T01:58:01;-4.20;99.90
11009;DHT22;5557;51.670;7.788;2022-11-20T02:00:29;-4.10;99.90
11009;DHT22;5557;51.670;7.788;2022-11-20T02:03:03;-3.90;99.90
11009;DHT22;5557;51.670;7.788;2022-11-20T02:05:41;-3.80;99.90
11009;DHT22;5557;51.670;7.788;2022-11-20T02:08:12;-3.80;99.90
11009;DHT22;5557;51.670;7.788;2022-11-20T02:10:39;-3.70;99.90
11009;DHT22;5557;51.670;7.788;2022-11-20T02:13:06;-3.60;99.90
11009;DHT22;5557;51.670;7.788;2022-11-20T02:15:52;-3.60;99.90
11009;DHT22;5557;51.670;7.788;2022-11-20T02:18:20;-3.50;99.90
11009;DHT22;5557;51.670;7.788;2022-11-20T02:20:52;-3.50;99.90
11009;DHT22;5557;51.670;7.788;2022-11-20T02:23:37;-3.40;99.90
11009;DHT22;5557;51.670;7.788;2022-11-20T02:26:08;-3.40;99.90
11009;DHT22;5557;51.670;7.788;2022-11-20T02:28:36;-3.30;99.90
11009;DHT22;5557;51.670;7.788;2022-11-20T02:31:03;-3.30;99.90
11009;DHT22;5557;51.670;7.788;2022-11-20T02:33:30;-3.20;99.90
11009;DHT22;5557;51.670;7.788;2022-11-20T02:35:57;-3.20;99.90
11009;DHT22;5557;51.670;7.788;2022-11-20T02:38:24;-3.20;99.90
11009;DHT22;5557;51.670;7.788;2022-11-20T02:40:54;-3.20;99.90
11009;DHT22;5557;51.670;7.788;2022-11-20T02:43:22;-3.10;99.90
11009;DHT22;5557;51.670;7.788;2022-11-20T02:45:49;-3.20;99.90
11009;DHT22;5557;51.670;7.788;2022-11-20T02:48:16;-3.10;99.90
11009;DHT22;5557;51.670;7.788;2022-11-20T02:50:43;-3.10;99.90
11009;DHT22;5557;51.670;7.788;2022-11-20T02:53:10;-3.10;99.90
11009;DHT22;5557;51.670;7.788;2022-11-20T02:55:37;-3.10;99.90
11009;DHT22;5557;51.670;7.788;2022-11-20T02:58:04;-3.10;99.60
11009;DHT22;5557;51.670;7.788;2022-11-20T03:00:32;-3.00;99.40
11009;DHT22;5557;51.670;7.788;2022-11-20T03:03:00;-3.00;99.20
11009;DHT22;5557;51.670;7.788;2022-11-20T03:05:27;-2.90;98.90
11009;DHT22;5557;51.670;7.788;2022-11-20T03:07:54;-2.90;98.60
11009;DHT22;5557;51.670;7.788;2022-11-20T03:10:21;-2.80;98.20
11009;DHT22;5557;51.670;7.788;2022-11-20T03:12:55;-2.80;97.70
11009;DHT22;5557;51.670;7.788;2022-11-20T03:15:23;-2.80;97.20
11009;DHT22;5557;51.670;7.788;2022-11-20T03:17:53;-2.70;96.90
11009;DHT22;5557;51.670;7.788;2022-11-20T03:20:22;-2.70;96.90
11009;DHT22;5557;51.670;7.788;2022-11-20T03:22:50;-2.60;97.20
11009;DHT22;5557;51.670;7.788;2022-11-20T03:25:17;-2.60;96.60
11009;DHT22;5557;51.670;7.788;2022-11-20T03:27:44;-2.60;96.40
11009;DHT22;5557;51.670;7.788;2022-11-20T03:30:11;-2.50;95.90
11009;DHT22;5557;51.670;7.788;2022-11-20T03:32:39;-2.50;95.90
11009;DHT22;5557;51.670;7.788;2022-11-20T03:35:29;-2.50;95.90
11009;DHT22;5557;51.670;7.788;2022-11-20T03:37:57;-2.50;95.70
11009;DHT22;5557;51.670;7.788;2022-11-20T03:40:25;-2.50;95.50
11009;DHT22;5557;51.670;7.788;2022-11-20T03:42:52;-2.50;95.50
11009;DHT22;5557;51.670;7.788;2022-11-20T03:45:19;-2.50;95.50
11009;DHT22;5557;51.670;7.788;2022-11-20T03:47:46;-2.50;95.60
11009;DHT22;5557;51.670;7.788;2022-11-20T03:50:13;-2.40;95.20
11009;DHT22;5557;51.670;7.788;2022-11-20T03:52:41;-2.40;95.20
11009;DHT22;5557;51.670;7.788;2022-11-20T03:55:08;-2.40;95.90
11009;DHT22;5557;51.670;7.788;2022-11-20T03:57:35;-2.40;96.10
11009;DHT22;5557;51.670;7.788;2022-11-20T04:00:03;-2.30;96.10
11009;DHT22;5557;51.670;7.788;2022-11-20T04:02:31;-2.30;96.20
11009;DHT22;5557;51.670;7.788;2022-11-20T04:04:58;-2.30;96.20
11009;DHT22;5557;51.670;7.788;2022-11-20T04:07:25;-2.30;96.60
11009;DHT22;5557;51.670;7.788;2022-11-20T04:09:52;-2.30;97.00
11009;DHT22;5557;51.670;7.788;2022-11-20T04:12:19;-2.20;97.50
11009;DHT22;5557;51.670;7.788;2022-11-20T04:14:46;-2.20;97.60
11009;DHT22;5557;51.670;7.788;2022-11-20T04:17:13;-2.20;98.10
11009;DHT22;5557;51.670;7.788;2022-11-20T04:19:40;-2.20;98.30
11009;DHT22;5557;51.670;7.788;2022-11-20T04:22:07;-2.20;98.60
11009;DHT22;5557;51.670;7.788;2022-11-20T04:24:34;-2.10;99.00
11009;DHT22;5557;51.670;7.788;2022-11-20T04:27:01;-2.10;99.50
11009;DHT22;5557;51.670;7.788;2022-11-20T04:29:28;-2.10;99.30
11009;DHT22;5557;51.670;7.788;2022-11-20T04:31:55;-2.10;99.00
11009;DHT22;5557;51.670;7.788;2022-11-20T04:34:22;-2.10;99.40
11009;DHT22;5557;51.670;7.788;2022-11-20T04:36:49;-2.00;99.90
11009;DHT22;5557;51.670;7.788;2022-11-20T04:39:16;-2.00;99.90
11009;DHT22;5557;51.670;7.788;2022-11-20T04:41:44;-2.00;99.90
11009;DHT22;5557;51.670;7.788;2022-11-20T04:44:11;-1.90;99.90
11009;DHT22;5557;51.670;7.788;2022-11-20T04:46:40;-2.00;99.90
11009;DHT22;5557;51.670;7.788;2022-11-20T04:49:08;-1.90;99.90
11009;DHT22;5557;51.670;7.788;2022-11-20T04:51:35;-1.90;99.90
11009;DHT22;5557;51.670;7.788;2022-11-20T04:54:02;-1.90;99.90
11009;DHT22;5557;51.670;7.788;2022-11-20T04:56:29;-1.90;99.90
11009;DHT22;5557;51.670;7.788;2022-11-20T04:59:01;-1.90;99.90
11009;DHT22;5557;51.670;7.788;2022-11-20T05:01:28;-1.90;99.90
11009;DHT22;5557;51.670;7.788;2022-11-20T05:03:56;-1.90;99.90
11009;DHT22;5557;51.670;7.788;2022-11-20T05:06:23;-1.90;99.90
11009;DHT22;5557;51.670;7.788;2022-11-20T05:08:50;-1.90;99.90
11009;DHT22;5557;51.670;7.788;2022-11-20T05:11:19;-1.80;99.90
11009;DHT22;5557;51.670;7.788;2022-11-20T05:13:47;-1.90;99.90
11009;DHT22;5557;51.670;7.788;2022-11-20T05:16:22;-1.90;99.90
11009;DHT22;5557;51.670;7.788;2022-11-20T05:18:51;-1.90;99.90
11009;DHT22;5557;51.670;7.788;2022-11-20T05:21:18;-1.80;99.90
11009;DHT22;5557;51.670;7.788;2022-11-20T05:23:46;-1.80;99.90
11009;DHT22;5557;51.670;7.788;2022-11-20T05:26:22;-1.80;99.90
11009;DHT22;5557;51.670;7.788;2022-11-20T05:28:50;-1.80;99.90
11009;DHT22;5557;51.670;7.788;2022-11-20T05:31:20;-1.80;99.90
11009;DHT22;5557;51.670;7.788;2022-11-20T05:33:53;-1.70;99.90
11009;DHT22;5557;51.670;7.788;2022-11-20T05:36:21;-1.70;99.90
11009;DHT22;5557;51.670;7.788;2022-11-20T05:38:48;-1.70;99.90
11009;DHT22;5557;51.670;7.788;2022-11-20T05:41:19;-1.70;99.90
11009;DHT22;5557;51.670;7.788;2022-11-20T05:43:47;-1.60;99.90
11009;DHT22;5557;51.670;7.788;2022-11-20T05:46:16;-1.60;99.90
11009;DHT22;5557;51.670;7.788;2022-11-20T05:48:46;-1.70;99.90
11009;DHT22;5557;51.670;7.788;2022-11-20T05:51:16;-1.60;99.90
11009;DHT22;5557;51.670;7.788;2022-11-20T05:53:44;-1.70;99.90
11009;DHT22;5557;51.670;7.788;2022-11-20T05:56:21;-1.80;99.90
11009;DHT22;5557;51.670;7.788;2022-11-20T05:58:48;-1.80;99.90
11009;DHT22;5557;51.670;7.788;2022-11-20T06:01:21;-1.80;99.90
11009;DHT22;5557;51.670;7.788;2022-11-20T06:03:49;-1.80;99.90
11009;DHT22;5557;51.670;7.788;2022-11-20T06:06:18;-1.80;99.90
11009;DHT22;5557;51.670;7.788;2022-11-20T06:08:46;-1.90;99.90
11009;DHT22;5557;51.670;7.788;2022-11-20T06:11:14;-1.90;99.90
11009;DHT22;5557;51.670;7.788;2022-11-20T06:13:42;-2.00;99.90
11009;DHT22;5557;51.670;7.788;2022-11-20T06:16:11;-2.10;99.90
11009;DHT22;5557;51.670;7.788;2022-11-20T06:18:38;-2.20;99.90
11009;DHT22;5557;51.670;7.788;2022-11-20T06:21:08;-2.30;99.90
11009;DHT22;5557;51.670;7.788;2022-11-20T06:23:36;-2.40;99.90
11009;DHT22;5557;51.670;7.788;2022-11-20T06:26:24;-2.60;99.90
11009;DHT22;5557;51.670;7.788;2022-11-20T06:28:51;-2.80;99.90
11009;DHT22;5557;51.670;7.788;2022-11-20T06:31:21;-2.90;99.90
11009;DHT22;5557;51.670;7.788;2022-11-20T06:33:49;-3.00;99.90
11009;DHT22;5557;51.670;7.788;2022-11-20T06:36:18;-3.10;99.90
11009;DHT22;5557;51.670;7.788;2022-11-20T06:38:46;-3.20;99.90
11009;DHT22;5557;51.670;7.788;2022-11-20T06:41:15;-3.10;99.90
11009;DHT22;5557;51.670;7.788;2022-11-20T06:43:43;-3.00;99.90
11009;DHT22;5557;51.670;7.788;2022-11-20T06:46:11;-2.90;99.90
11009;DHT22;5557;51.670;7.788;2022-11-20T06:48:39;-2.90;99.90
11009;DHT22;5557;51.670;7.788;2022-11-20T06:51:07;-2.80;99.90
11009;DHT22;5557;51.670;7.788;2022-11-20T06:53:35;-2.80;99.90
11009;DHT22;5557;51.670;7.788;2022-11-20T06:56:03;-2.80;99.90
11009;DHT22;5557;51.670;7.788;2022-11-20T06:58:31;-2.80;99.90
11009;DHT22;5557;51.670;7.788;2022-11-20T07:01:06;-2.70;99.90
11009;DHT22;5557;51.670;7.788;2022-11-20T07:03:34;-2.70;99.90
11009;DHT22;5557;51.670;7.788;2022-11-20T07:06:02;-2.70;99.90
11009;DHT22;5557;51.670;7.788;2022-11-20T07:08:29;-2.70;99.90
11009;DHT22;5557;51.670;7.788;2022-11-20T07:11:01;-2.70;99.90
11009;DHT22;5557;51.670;7.788;2022-11-20T07:13:29;-2.70;99.90
11009;DHT22;5557;51.670;7.788;2022-11-20T07:16:02;-2.70;99.90
11009;DHT22;5557;51.670;7.788;2022-11-20T07:18:31;-2.70;99.90
11009;DHT22;5557;51.670;7.788;2022-11-20T07:21:06;-2.60;99.90
11009;DHT22;5557;51.670;7.788;2022-11-20T07:23:33;-2.50;99.90
11009;DHT22;5557;51.670;7.788;2022-11-20T07:26:05;-2.20;99.90
11009;DHT22;5557;51.670;7.788;2022-11-20T07:28:33;-1.60;99.90
11009;DHT22;5557;51.670;7.788;2022-11-20T07:31:00;-1.10;99.90
11009;DHT22;5557;51.670;7.788;2022-11-20T07:33:28;-0.80;99.90
11009;DHT22;5557;51.670;7.788;2022-11-20T07:35:55;-0.40;99.90
11009;DHT22;5557;51.670;7.788;2022-11-20T07:38:22;-0.50;99.90
11009;DHT22;5557;51.670;7.788;2022-11-20T07:40:53;-0.70;99.90
11009;DHT22;5557;51.670;7.788;2022-11-20T07:43:21;-0.90;99.90
11009;DHT22;5557;51.670;7.788;2022-11-20T07:45:48;-1.00;99.90
11009;DHT22;5557;51.670;7.788;2022-11-20T07:48:15;-1.10;99.90
11009;DHT22;5557;51.670;7.788;2022-11-20T07:50:42;-1.20;99.90
11009;DHT22;5557;51.670;7.788;2022-11-20T07:53:09;-1.20;99.90
11009;DHT22;5557;51.670;7.788;2022-11-20T07:55:36;-1.20;99.90
11009;DHT22;5557;51.670;7.788;2022-11-20T07:58:03;-1.20;99.90
11009;DHT22;5557;51.670;7.788;2022-11-20T08:00:31;-0.90;99.90
11009;DHT22;5557;51.670;7.788;2022-11-20T08:02:58;-0.30;99.90
11009;DHT22;5557;51.670;7.788;2022-11-20T08:05:25;0.10;99.90
11009;DHT22;5557;51.670;7.788;2022-11-20T08:07:52;0.60;99.90
11009;DHT22;5557;51.670;7.788;2022-11-20T08:10:19;0.90;97.60
11009;DHT22;5557;51.670;7.788;2022-11-20T08:12:48;0.80;91.00
11009;DHT22;5557;51.670;7.788;2022-11-20T08:15:34;1.40;94.80
11009;DHT22;5557;51.670;7.788;2022-11-20T08:18:03;2.60;72.90
11009;DHT22;5557;51.670;7.788;2022-11-20T08:20:50;3.50;46.80
11009;DHT22;5557;51.670;7.788;2022-11-20T08:23:17;4.20;32.30
11009;DHT22;5557;51.670;7.788;2022-11-20T08:25:49;4.40;19.80
11009;DHT22;5557;51.670;7.788;2022-11-20T08:28:16;4.40;17.60
11009;DHT22;5557;51.670;7.788;2022-11-20T08:30:48;4.70;19.90
11009;DHT22;5557;51.670;7.788;2022-11-20T08:33:15;5.40;6.90
11009;DHT22;5557;51.670;7.788;2022-11-20T08:35:44;5.50;4.20
11009;DHT22;5557;51.670;7.788;2022-11-20T08:38:11;5.70;1.00
11009;DHT22;5557;51.670;7.788;2022-11-20T08:40:38;6.10;1.00
11009;DHT22;5557;51.670;7.788;2022-11-20T08:43:05;6.30;1.00
11009;DHT22;5557;51.670;7.788;2022-11-20T08:45:32;6.30;1.00
11009;DHT22;5557;51.670;7.788;2022-11-20T08:48:01;6.40;1.00
11009;DHT22;5557;51.670;7.788;2022-11-20T08:50:30;6.50;1.00
11009;DHT22;5557;51.670;7.788;2022-11-20T08:53:05;6.40;1.00
11009;DHT22;5557;51.670;7.788;2022-11-20T08:55:33;6.50;1.00
11009;DHT22;5557;51.670;7.788;2022-11-20T08:58:06;6.30;1.00
11009;DHT22;5557;51.670;7.788;2022-11-20T09:00:33;6.20;1.00
11009;DHT22;5557;51.670;7.788;2022-11-20T09:03:01;6.30;1.00
11009;DHT22;5557;51.670;7.788;2022-11-20T09:05:28;6.40;1.00
11009;DHT22;5557;51.670;7.788;2022-11-20T09:07:58;6.50;1.00
11009;DHT22;5557;51.670;7.788;2022-11-20T09:10:26;6.60;1.00
11009;DHT22;5557;51.670;7.788;2022-11-20T09:12:55;6.70;1.00
11009;DHT22;5557;51.670;7.788;2022-11-20T09:15:23;6.90;1.00
11009;DHT22;5557;51.670;7.788;2022-11-20T09:17:59;6.60;1.00
11009;DHT22;5557;51.670;7.788;2022-11-20T09:20:28;6.40;1.00
11009;DHT22;5557;51.670;7.788;2022-11-20T09:22:56;6.00;1.00
11009;DHT22;5557;51.670;7.788;2022-11-20T09:25:24;6.00;1.00
11009;DHT22;5557;51.670;7.788;2022-11-20T09:27:59;5.90;1.00
11009;DHT22;5557;51.670;7.788;2022-11-20T09:30:26;6.00;1.10
11009;DHT22;5557;51.670;7.788;2022-11-20T09:32:54;6.00;4.00
11009;DHT22;5557;51.670;7.788;2022-11-20T09:35:21;6.10;2.10
11009;DHT22;5557;51.670;7.788;2022-11-20T09:37:50;6.10;1.90
11009;DHT22;5557;51.670;7.788;2022-11-20T09:40:22;6.20;2.60
11009;DHT22;5557;51.670;7.788;2022-11-20T09:46:53;5.80;1.00
11009;DHT22;5557;51.670;7.788;2022-11-20T09:49:28;5.70;10.20
11009;DHT22;5557;51.670;7.788;2022-11-20T09:54:46;5.90;12.60
11009;DHT22;5557;51.670;7.788;2022-11-20T09:57:23;5.60;12.80
11009;DHT22;5557;51.670;7.788;2022-11-20T09:59:56;5.40;12.90
11009;DHT22;5557;51.670;7.788;2022-11-20T10:02:54;5.20;20.50
11009;DHT22;5557;51.670;7.788;2022-11-20T10:05:31;5.10;19.70
11009;DHT22;5557;51.670;7.788;2022-11-20T10:08:20;5.00;26.10
11009;DHT22;5557;51.670;7.788;2022-11-20T10:14:55;5.00;21.50
11009;DHT22;5557;51.670;7.788;2022-11-20T10:17:27;4.90;26.40
11009;DHT22;5557;51.670;7.788;2022-11-20T10:20:29;4.90;24.90
11009;DHT22;5557;51.670;7.788;2022-11-20T10:23:23;4.70;24.30
11009;DHT22;5557;51.670;7.788;2022-11-20T10:26:01;4.50;31.70
11009;DHT22;5557;51.670;7.788;2022-11-20T10:31:37;4.40;30.20
11009;DHT22;5557;51.670;7.788;2022-11-20T10:37:11;4.00;39.40
11009;DHT22;5557;51.670;7.788;2022-11-20T10:42:55;3.80;44.00
11009;DHT22;5557;51.670;7.788;2022-11-20T10:45:39;3.70;46.00
11009;DHT22;5557;51.670;7.788;2022-11-20T10:48:16;3.70;45.80
11009;DHT22;5557;51.670;7.788;2022-11-20T10:51:20;3.60;47.20
11009;DHT22;5557;51.670;7.788;2022-11-20T10:53:57;3.50;46.20
11009;DHT22;5557;51.670;7.788;2022-11-20T10:56:41;3.40;46.50
11009;DHT22;5557;51.670;7.788;2022-11-20T10:59:50;3.40;45.10
11009;DHT22;5557;51.670;7.788;2022-11-20T11:02:23;3.40;46.90
11009;DHT22;5557;51.670;7.788;2022-11-20T11:04:52;3.40;48.30
11009;DHT22;5557;51.670;7.788;2022-11-20T11:07:27;3.50;48.00
11009;DHT22;5557;51.670;7.788;2022-11-20T11:09:59;3.50;48.50
11009;DHT22;5557;51.670;7.788;2022-11-20T11:12:28;3.60;45.30
11009;DHT22;5557;51.670;7.788;2022-11-20T11:14:56;3.70;42.70
11009;DHT22;5557;51.670;7.788;2022-11-20T11:17:47;3.70;41.00
11009;DHT22;5557;51.670;7.788;2022-11-20T11:20:23;3.70;39.70
11009;DHT22;5557;51.670;7.788;2022-11-20T11:22:53;3.70;39.60
11009;DHT22;5557;51.670;7.788;2022-11-20T11:27:54;3.90;37.30
11009;DHT22;5557;51.670;7.788;2022-11-20T11:30:24;3.90;36.20
11009;DHT22;5557;51.670;7.788;2022-11-20T11:33:06;4.00;34.00
11009;DHT22;5557;51.670;7.788;2022-11-20T11:35:45;3.90;29.30
11009;DHT22;5557;51.670;7.788;2022-11-20T11:38:21;3.80;28.50
11009;DHT22;5557;51.670;7.788;2022-11-20T11:40:49;3.80;28.70
11009;DHT22;5557;51.670;7.788;2022-11-20T11:43:26;3.90;28.50
11009;DHT22;5557;51.670;7.788;2022-11-20T11:46:33;3.90;30.80
11009;DHT22;5557;51.670;7.788;2022-11-20T11:49:20;4.00;29.10
11009;DHT22;5557;51.670;7.788;2022-11-20T11:52:14;4.00;26.50
11009;DHT22;5557;51.670;7.788;2022-11-20T11:55:15;3.90;27.70
11009;DHT22;5557;51.670;7.788;2022-11-20T12:00:41;3.80;28.50
11009;DHT22;5557;51.670;7.788;2022-11-20T12:05:53;3.60;28.40
11009;DHT22;5557;51.670;7.788;2022-11-20T12:14:48;3.50;30.50
11009;DHT22;5557;51.670;7.788;2022-11-20T12:17:17;3.60;30.20
11009;DHT22;5557;51.670;7.788;2022-11-20T12:19:45;3.70;30.80
11009;DHT22;5557;51.670;7.788;2022-11-20T12:22:44;3.80;29.20
11009;DHT22;5557;51.670;7.788;2022-11-20T12:25:22;3.90;27.70
11009;DHT22;5557;51.670;7.788;2022-11-20T12:38:30;3.60;29.30
11009;DHT22;5557;51.670;7.788;2022-11-20T12:41:05;3.60;29.80
11009;DHT22;5557;51.670;7.788;2022-11-20T12:44:05;3.50;30.70
11009;DHT22;5557;51.670;7.788;2022-11-20T12:47:24;3.40;31.10
11009;DHT22;5557;51.670;7.788;2022-11-20T13:00:08;3.10;34.80
11009;DHT22;5557;51.670;7.788;2022-11-20T13:08:53;3.30;34.40
11009;DHT22;5557;51.670;7.788;2022-11-20T13:11:39;3.30;32.40
11009;DHT22;5557;51.670;7.788;2022-11-20T13:14:28;3.20;32.40
11009;DHT22;5557;51.670;7.788;2022-11-20T13:17:16;3.30;34.60
11009;DHT22;5557;51.670;7.788;2022-11-20T13:19:52;3.30;32.40
11009;DHT22;5557;51.670;7.788;2022-11-20T13:23:00;3.40;32.50
11009;DHT22;5557;51.670;7.788;2022-11-20T13:25:30;3.30;28.50
11009;DHT22;5557;51.670;7.788;2022-11-20T13:28:00;3.20;29.00
11009;DHT22;5557;51.670;7.788;2022-11-20T13:30:30;3.10;30.80
11009;DHT22;5557;51.670;7.788;2022-11-20T13:33:07;3.10;30.90
11009;DHT22;5557;51.670;7.788;2022-11-20T13:35:41;3.00;31.70
11009;DHT22;5557;51.670;7.788;2022-11-20T13:38:14;3.00;30.80
11009;DHT22;5557;51.670;7.788;2022-11-20T13:41:00;3.00;31.60
11009;DHT22;5557;51.670;7.788;2022-11-20T13:43:47;3.00;32.00
11009;DHT22;5557;51.670;7.788;2022-11-20T13:46:15;3.00;30.00
11009;DHT22;5557;51.670;7.788;2022-11-20T13:48:46;3.00;30.80
11009;DHT22;5557;51.670;7.788;2022-11-20T13:51:50;3.00;30.80
11009;DHT22;5557;51.670;7.788;2022-11-20T14:00:55;3.10;30.90
11009;DHT22;5557;51.670;7.788;2022-11-20T14:03:25;3.10;30.00
11009;DHT22;5557;51.670;7.788;2022-11-20T14:06:30;3.10;30.90
11009;DHT22;5557;51.670;7.788;2022-11-20T14:08:59;3.10;34.70
11009;DHT22;5557;51.670;7.788;2022-11-20T14:11:28;3.10;36.30
11009;DHT22;5557;51.670;7.788;2022-11-20T14:14:14;3.00;38.80
11009;DHT22;5557;51.670;7.788;2022-11-20T14:16:41;3.00;40.60
11009;DHT22;5557;51.670;7.788;2022-11-20T14:19:36;3.00;41.10
11009;DHT22;5557;51.670;7.788;2022-11-20T14:22:23;3.00;39.80
11009;DHT22;5557;51.670;7.788;2022-11-20T14:25:20;2.90;38.40
11009;DHT22;5557;51.670;7.788;2022-11-20T14:27:55;2.90;41.00
11009;DHT22;5557;51.670;7.788;2022-11-20T14:30:29;2.90;41.00
11009;DHT22;5557;51.670;7.788;2022-11-20T14:33:03;2.90;41.00
11009;DHT22;5557;51.670;7.788;2022-11-20T14:35:35;2.90;41.10
11009;DHT22;5557;51.670;7.788;2022-11-20T14:38:03;2.90;41.80
11009;DHT22;5557;51.670;7.788;2022-11-20T14:40:32;3.00;41.30
11009;DHT22;5557;51.670;7.788;2022-11-20T14:43:18;2.90;41.50
11009;DHT22;5557;51.670;7.788;2022-11-20T14:45:52;3.00;42.30
11009;DHT22;5557;51.670;7.788;2022-11-20T14:48:31;2.90;43.20
11009;DHT22;5557;51.670;7.788;2022-11-20T14:50:59;2.90;44.50
11009;DHT22;5557;51.670;7.788;2022-11-20T14:53:26;2.90;45.00
11009;DHT22;5557;51.670;7.788;2022-11-20T14:56:01;2.90;47.10
11009;DHT22;5557;51.670;7.788;2022-11-20T14:58:31;2.90;48.80
11009;DHT22;5557;51.670;7.788;2022-11-20T15:01:07;2.90;48.80
11009;DHT22;5557;51.670;7.788;2022-11-20T15:03:40;2.80;49.60
11009;DHT22;5557;51.670;7.788;2022-11-20T15:06:11;2.80;54.00
11009;DHT22;5557;51.670;7.788;2022-11-20T15:08:38;2.60;60.40
11009;DHT22;5557;51.670;7.788;2022-11-20T15:11:18;2.40;68.30
11009;DHT22;5557;51.670;7.788;2022-11-20T15:13:46;2.20;75.80
11009;DHT22;5557;51.670;7.788;2022-11-20T15:16:18;2.10;81.10
11009;DHT22;5557;51.670;7.788;2022-11-20T15:18:46;2.00;85.80
11009;DHT22;5557;51.670;7.788;2022-11-20T15:21:19;2.00;89.70
11009;DHT22;5557;51.670;7.788;2022-11-20T15:23:48;2.00;90.50
11009;DHT22;5557;51.670;7.788;2022-11-20T15:26:23;2.00;91.20
11009;DHT22;5557;51.670;7.788;2022-11-20T15:28:51;2.00;91.60
11009;DHT22;5557;51.670;7.788;2022-11-20T15:31:21;2.00;92.60
11009;DHT22;5557;51.670;7.788;2022-11-20T15:33:49;2.00;92.80
11009;DHT22;5557;51.670;7.788;2022-11-20T15:36:17;2.00;93.60
11009;DHT22;5557;51.670;7.788;2022-11-20T15:38:44;2.00;93.50
11009;DHT22;5557;51.670;7.788;2022-11-20T15:41:11;2.00;93.70
11009;DHT22;5557;51.670;7.788;2022-11-20T15:43:38;2.00;94.20
11009;DHT22;5557;51.670;7.788;2022-11-20T15:46:10;2.10;94.50
11009;DHT22;5557;51.670;7.788;2022-11-20T15:48:41;2.10;94.30
11009;DHT22;5557;51.670;7.788;2022-11-20T15:51:41;2.10;94.30
11009;DHT22;5557;51.670;7.788;2022-11-20T15:54:21;2.10;93.90
11009;DHT22;5557;51.670;7.788;2022-11-20T15:56:50;2.10;93.80
11009;DHT22;5557;51.670;7.788;2022-11-20T15:59:20;2.10;94.30
11009;DHT22;5557;51.670;7.788;2022-11-20T16:01:47;2.10;94.70
11009;DHT22;5557;51.670;7.788;2022-11-20T16:04:15;2.10;95.40
11009;DHT22;5557;51.670;7.788;2022-11-20T16:06:46;2.10;95.60
11009;DHT22;5557;51.670;7.788;2022-11-20T16:09:12;2.00;96.60
11009;DHT22;5557;51.670;7.788;2022-11-20T16:11:39;2.00;98.00
11009;DHT22;5557;51.670;7.788;2022-11-20T16:14:10;2.00;98.70
11009;DHT22;5557;51.670;7.788;2022-11-20T16:16:56;2.00;99.60
11009;DHT22;5557;51.670;7.788;2022-11-20T16:19:23;2.00;99.90
11009;DHT22;5557;51.670;7.788;2022-11-20T16:21:50;2.00;99.90
11009;DHT22;5557;51.670;7.788;2022-11-20T16:24:17;2.00;99.90
11009;DHT22;5557;51.670;7.788;2022-11-20T16:26:44;2.00;99.90
11009;DHT22;5557;51.670;7.788;2022-11-20T16:29:11;2.00;99.90
11009;DHT22;5557;51.670;7.788;2022-11-20T16:31:40;2.00;99.90
11009;DHT22;5557;51.670;7.788;2022-11-20T16:34:07;2.10;99.90
11009;DHT22;5557;51.670;7.788;2022-11-20T16:36:49;2.10;99.90
11009;DHT22;5557;51.670;7.788;2022-11-20T16:39:16;2.10;99.90
11009;DHT22;5557;51.670;7.788;2022-11-20T16:41:49;2.10;99.90
11009;DHT22;5557;51.670;7.788;2022-11-20T16:44:16;2.10;99.90
11009;DHT22;5557;51.670;7.788;2022-11-20T16:46:43;2.00;99.90
11009;DHT22;5557;51.670;7.788;2022-11-20T16:49:12;2.00;99.90
11009;DHT22;5557;51.670;7.788;2022-11-20T16:51:39;2.00;99.90
11009;DHT22;5557;51.670;7.788;2022-11-20T16:54:08;2.00;99.90
11009;DHT22;5557;51.670;7.788;2022-11-20T16:56:35;2.00;99.90
11009;DHT22;5557;51.670;7.788;2022-11-20T16:59:03;2.00;99.90
11009;DHT22;5557;51.670;7.788;2022-11-20T17:01:30;2.00;99.90
11009;DHT22;5557;51.670;7.788;2022-11-20T17:04:05;2.00;99.90
11009;DHT22;5557;51.670;7.788;2022-11-20T17:06:35;2.00;99.90
11009;DHT22;5557;51.670;7.788;2022-11-20T17:09:04;2.00;99.90
11009;DHT22;5557;51.670;7.788;2022-11-20T17:11:32;2.00;99.90
11009;DHT22;5557;51.670;7.788;2022-11-20T17:14:00;2.00;99.90
11009;DHT22;5557;51.670;7.788;2022-11-20T17:16:34;2.10;99.90
11009;DHT22;5557;51.670;7.788;2022-11-20T17:19:03;2.10;99.90
11009;DHT22;5557;51.670;7.788;2022-11-20T17:21:32;2.10;99.90
11009;DHT22;5557;51.670;7.788;2022-11-20T17:24:00;2.10;99.90
11009;DHT22;5557;51.670;7.788;2022-11-20T17:26:29;2.10;99.90
11009;DHT22;5557;51.670;7.788;2022-11-20T17:28:58;2.10;99.90
11009;DHT22;5557;51.670;7.788;2022-11-20T17:31:27;2.10;99.90
11009;DHT22;5557;51.670;7.788;2022-11-20T17:33:55;2.10;99.90